createdAt,value
2016-05-05T00:00:03.445Z,0
2016-05-05T00:01:03.432Z,0
2016-05-05T00:02:03.560Z,0
2016-05-05T00:03:03.531Z,0
2016-05-05T00:04:03.534Z,0
2016-05-05T00:05:03.177Z,0
2016-05-05T00:06:03.445Z,0
2016-05-05T00:07:03.433Z,0
2016-05-05T00:08:03.404Z,0
2016-05-05T00:09:03.517Z,0
2016-05-05T00:10:03.191Z,0
2016-05-05T00:11:03.319Z,0
2016-05-05T00:12:03.305Z,0
2016-05-05T00:13:03.293Z,0
2016-05-05T00:14:03.280Z,0
2016-05-05T00:15:03.048Z,0
2016-05-05T00:16:03.207Z,0
2016-05-05T00:17:03.193Z,0
2016-05-05T00:18:03.150Z,0
2016-05-05T00:19:03.121Z,0
2016-05-05T00:20:02.937Z,0
2016-05-05T00:21:03.065Z,0
2016-05-05T00:22:02.879Z,0
2016-05-05T00:23:02.851Z,0
2016-05-05T00:24:03.791Z,0
2016-05-05T00:25:03.168Z,0
2016-05-05T00:26:02.921Z,0
2016-05-05T00:27:02.752Z,0
2016-05-05T00:28:02.708Z,0
2016-05-05T00:29:02.836Z,0
2016-05-05T00:30:02.666Z,0
2016-05-05T00:31:02.795Z,0
2016-05-05T00:32:02.625Z,0
2016-05-05T00:33:02.580Z,0
2016-05-05T00:34:02.568Z,0
2016-05-05T00:35:02.398Z,0
2016-05-05T00:36:02.667Z,0
2016-05-05T00:37:02.483Z,0
2016-05-05T00:38:02.453Z,0
2016-05-05T00:39:02.581Z,0
2016-05-05T00:40:02.771Z,0
2016-05-05T00:41:02.368Z,0
2016-05-05T00:42:02.371Z,0
2016-05-05T00:43:02.467Z,0
2016-05-05T00:44:02.454Z,0
2016-05-05T00:45:02.425Z,0
2016-05-05T00:46:02.412Z,0
2016-05-05T00:47:02.213Z,0
2016-05-05T00:48:02.340Z,0
2016-05-05T00:49:02.311Z,0
2016-05-05T00:50:02.329Z,0
2016-05-05T00:51:02.271Z,0
2016-05-05T00:52:02.226Z,0
2016-05-05T00:53:01.916Z,0
2016-05-05T00:54:02.309Z,0
2016-05-05T00:55:01.999Z,0
2016-05-05T00:56:02.127Z,0
2016-05-05T00:57:02.099Z,0
2016-05-05T00:58:02.071Z,0
2016-05-05T00:59:02.042Z,0
2016-05-05T01:00:02.028Z,0
2016-05-05T01:01:02.000Z,0
2016-05-05T01:02:01.987Z,0
2016-05-05T01:03:01.927Z,0
2016-05-05T01:04:01.758Z,0
2016-05-05T01:05:01.761Z,0
2016-05-05T01:06:01.701Z,0
2016-05-05T01:07:01.672Z,0
2016-05-05T01:08:01.675Z,0
2016-05-05T01:09:01.786Z,0
2016-05-05T01:10:01.617Z,0
2016-05-05T01:11:01.714Z,0
2016-05-05T01:12:01.701Z,0
2016-05-05T01:13:01.704Z,0
2016-05-05T01:14:01.660Z,0
2016-05-05T01:15:01.460Z,0
2016-05-05T01:16:01.431Z,0
2016-05-05T01:17:01.558Z,0
2016-05-05T01:18:01.389Z,0
2016-05-05T01:19:01.360Z,0
2016-05-05T01:20:01.316Z,0
2016-05-05T01:21:01.460Z,0
2016-05-05T01:22:01.432Z,0
2016-05-05T01:23:01.231Z,0
2016-05-05T01:24:02.265Z,0
2016-05-05T01:25:01.362Z,0
2016-05-05T01:26:01.005Z,0
2016-05-05T01:27:01.148Z,0
2016-05-05T01:28:01.120Z,0
2016-05-05T01:29:01.231Z,0
2016-05-05T01:30:01.062Z,0
2016-05-05T01:31:01.190Z,0
2016-05-05T01:32:01.146Z,0
2016-05-05T01:33:00.976Z,0
2016-05-05T01:34:01.104Z,0
2016-05-05T01:35:01.092Z,0
2016-05-05T01:36:01.048Z,0
2016-05-05T01:37:01.019Z,0
2016-05-05T01:38:00.990Z,0
2016-05-05T01:39:00.805Z,0
2016-05-05T01:40:00.933Z,0
2016-05-05T01:41:00.761Z,0
2016-05-05T01:42:00.892Z,0
2016-05-05T01:43:00.863Z,0
2016-05-05T01:44:00.691Z,0
2016-05-05T01:45:00.803Z,0
2016-05-05T01:46:00.791Z,0
2016-05-05T01:47:00.433Z,0
2016-05-05T01:48:00.748Z,0
2016-05-05T01:49:00.704Z,0
2016-05-05T01:50:00.660Z,0
2016-05-05T01:51:00.491Z,0
2016-05-05T01:52:00.619Z,0
2016-05-05T01:53:00.611Z,0
2016-05-05T01:54:00.625Z,0
2016-05-05T01:55:00.342Z,0
2016-05-05T01:56:00.497Z,0
2016-05-05T01:57:00.667Z,0
2016-05-05T01:58:00.511Z,0
2016-05-05T01:59:00.498Z,0
2016-05-05T02:00:00.657Z,0
2016-05-05T02:01:00.628Z,0
2016-05-05T02:02:00.616Z,0
2016-05-05T02:03:00.597Z,0
2016-05-05T02:04:52.145Z,0
2016-05-05T02:05:04.280Z,0
2016-05-05T02:06:04.241Z,0
2016-05-05T02:07:04.372Z,0
2016-05-05T02:08:04.361Z,0
2016-05-05T02:09:05.913Z,0
2016-05-05T02:10:04.308Z,0
2016-05-05T02:11:04.265Z,0
2016-05-05T02:12:04.082Z,0
2016-05-05T02:13:04.086Z,0
2016-05-05T02:14:04.213Z,0
2016-05-05T02:15:04.015Z,0
2016-05-05T02:16:04.142Z,0
2016-05-05T02:17:04.115Z,0
2016-05-05T02:18:04.087Z,0
2016-05-05T02:19:04.058Z,0
2016-05-05T02:20:04.014Z,0
2016-05-05T02:21:04.002Z,0
2016-05-05T02:22:03.975Z,0
2016-05-05T02:23:03.979Z,0
2016-05-05T02:24:03.746Z,0
2016-05-05T02:25:03.593Z,0
2016-05-05T02:26:03.532Z,0
2016-05-05T02:27:03.832Z,0
2016-05-05T02:28:03.648Z,0
2016-05-05T02:29:03.776Z,0
2016-05-05T02:30:03.748Z,0
2016-05-05T02:31:03.718Z,0
2016-05-05T02:32:03.690Z,0
2016-05-05T02:33:03.661Z,0
2016-05-05T02:34:03.648Z,0
2016-05-05T02:35:03.464Z,0
2016-05-05T02:36:03.575Z,0
2016-05-05T02:37:03.562Z,0
2016-05-05T02:38:03.375Z,0
2016-05-05T02:39:03.347Z,0
2016-05-05T02:40:03.462Z,0
2016-05-05T02:41:03.446Z,0
2016-05-05T02:42:03.433Z,0
2016-05-05T02:43:03.405Z,0
2016-05-05T02:44:03.344Z,0
2016-05-05T02:45:03.176Z,0
2016-05-05T02:46:03.319Z,0
2016-05-05T02:47:03.274Z,0
2016-05-05T02:48:03.089Z,0
2016-05-05T02:49:02.921Z,0
2016-05-05T02:50:03.032Z,0
2016-05-05T02:51:03.161Z,0
2016-05-05T02:52:03.132Z,0
2016-05-05T02:53:03.119Z,0
2016-05-05T02:54:02.934Z,0
2016-05-05T02:55:02.874Z,0
2016-05-05T02:56:02.861Z,0
2016-05-05T02:57:02.989Z,0
2016-05-05T02:58:02.960Z,0
2016-05-05T02:59:02.776Z,0
2016-05-05T03:00:02.732Z,0
2016-05-05T03:01:02.891Z,0
2016-05-05T03:02:02.846Z,0
2016-05-05T03:03:02.818Z,0
2016-05-05T03:04:02.804Z,0
2016-05-05T03:05:02.792Z,0
2016-05-05T03:06:02.576Z,0
2016-05-05T03:07:02.703Z,0
2016-05-05T03:08:02.675Z,0
2016-05-05T03:09:04.256Z,0
2016-05-05T03:10:02.478Z,0
2016-05-05T03:11:02.589Z,0
2016-05-05T03:12:02.575Z,0
2016-05-05T03:13:02.531Z,0
2016-05-05T03:14:02.363Z,0
2016-05-05T03:15:02.194Z,0
2016-05-05T03:16:02.461Z,0
2016-05-05T03:17:02.449Z,0
2016-05-05T03:18:02.249Z,0
2016-05-05T03:19:02.205Z,0
2016-05-05T03:20:02.348Z,0
2016-05-05T03:21:02.303Z,0
2016-05-05T03:22:02.290Z,0
2016-05-05T03:23:02.246Z,0
2016-05-05T03:24:02.218Z,0
2016-05-05T03:25:02.189Z,0
2016-05-05T03:26:02.177Z,0
2016-05-05T03:27:01.991Z,0
2016-05-05T03:28:01.963Z,0
2016-05-05T03:29:02.074Z,0
2016-05-05T03:30:01.907Z,0
2016-05-05T03:31:02.034Z,0
2016-05-05T03:32:01.692Z,0
2016-05-05T03:33:01.976Z,0
2016-05-05T03:34:01.776Z,0
2016-05-05T03:35:01.904Z,0
2016-05-05T03:36:01.891Z,0
2016-05-05T03:37:01.862Z,0
2016-05-05T03:38:01.818Z,0
2016-05-05T03:39:01.806Z,0
2016-05-05T03:40:01.776Z,0
2016-05-05T03:41:01.576Z,0
2016-05-05T03:42:01.703Z,0
2016-05-05T03:43:01.675Z,0
2016-05-05T03:44:01.350Z,0
2016-05-05T03:45:01.618Z,5
2016-05-05T03:46:01.433Z,5
2016-05-05T03:47:01.405Z,5
2016-05-05T03:48:01.392Z,5
2016-05-05T03:49:01.504Z,5
2016-05-05T03:50:01.475Z,5
2016-05-05T03:51:01.430Z,5
2016-05-05T03:52:01.418Z,5
2016-05-05T03:53:01.264Z,10
2016-05-05T03:54:01.391Z,10
2016-05-05T03:55:01.082Z,10
2016-05-05T03:56:01.304Z,10
2016-05-05T03:57:01.135Z,10
2016-05-05T03:58:01.091Z,15
2016-05-05T03:59:00.921Z,15
2016-05-05T04:00:01.190Z,15
2016-05-05T04:01:01.160Z,15
2016-05-05T04:02:00.992Z,20
2016-05-05T04:03:01.104Z,20
2016-05-05T04:04:00.918Z,20
2016-05-05T04:05:01.046Z,25
2016-05-05T04:06:01.018Z,20
2016-05-05T04:07:00.990Z,25
2016-05-05T04:08:00.993Z,25
2016-05-05T04:09:00.807Z,25
2016-05-05T04:10:00.982Z,25
2016-05-05T04:11:00.875Z,25
2016-05-05T04:12:00.690Z,30
2016-05-05T04:13:00.678Z,35
2016-05-05T04:14:00.790Z,35
2016-05-05T04:15:00.777Z,30
2016-05-05T04:16:00.733Z,35
2016-05-05T04:17:00.704Z,35
2016-05-05T04:18:00.692Z,35
2016-05-05T04:19:00.647Z,35
2016-05-05T04:20:00.462Z,40
2016-05-05T04:21:00.449Z,45
2016-05-05T04:22:00.577Z,45
2016-05-05T04:23:00.549Z,40
2016-05-05T04:24:00.504Z,45
2016-05-05T04:25:00.179Z,45
2016-05-05T04:26:00.447Z,50
2016-05-05T04:27:00.263Z,50
2016-05-05T04:28:00.406Z,50
2016-05-05T04:29:00.377Z,55
2016-05-05T04:30:00.208Z,55
2016-05-05T04:31:00.320Z,55
2016-05-05T04:32:00.119Z,55
2016-05-05T04:33:00.247Z,60
2016-05-05T04:34:00.062Z,65
2016-05-05T04:35:00.049Z,65
2016-05-05T04:36:00.176Z,65
2016-05-05T04:37:00.133Z,70
2016-05-05T04:38:00.120Z,70
2016-05-05T04:39:00.107Z,70
2016-05-05T04:40:00.345Z,70
2016-05-05T04:40:59.893Z,70
2016-05-05T04:41:59.693Z,75
2016-05-05T04:42:59.681Z,75
2016-05-05T04:43:59.948Z,75
2016-05-05T04:44:59.920Z,75
2016-05-05T04:45:59.907Z,75
2016-05-05T04:46:59.864Z,80
2016-05-05T04:47:59.850Z,90
2016-05-05T04:48:59.649Z,90
2016-05-05T04:49:59.778Z,90
2016-05-05T04:50:59.467Z,95
2016-05-05T04:51:59.423Z,95
2016-05-05T04:52:59.550Z,95
2016-05-05T04:53:59.664Z,90
2016-05-05T04:54:59.697Z,95
2016-05-05T04:55:59.621Z,95
2016-05-05T04:56:59.594Z,95
2016-05-05T04:57:59.564Z,95
2016-05-05T04:58:59.535Z,90
2016-05-05T04:59:59.352Z,85
2016-05-05T05:00:59.494Z,85
2016-05-05T05:01:59.450Z,90
2016-05-05T05:02:59.422Z,90
2016-05-05T05:03:59.393Z,90
2016-05-05T05:04:59.364Z,90
2016-05-05T05:05:59.351Z,90
2016-05-05T05:06:59.324Z,90
2016-05-05T05:07:59.310Z,95
2016-05-05T05:08:59.266Z,95
2016-05-05T05:09:59.112Z,95
2016-05-05T05:10:59.224Z,95
2016-05-05T05:11:59.055Z,95
2016-05-05T05:12:59.168Z,95
2016-05-05T05:13:58.967Z,100
2016-05-05T05:14:58.954Z,100
2016-05-05T05:15:58.926Z,100
2016-05-05T05:16:59.053Z,100
2016-05-05T05:17:59.024Z,100
2016-05-05T05:18:58.839Z,105
2016-05-05T05:19:59.998Z,105
2016-05-05T05:20:58.955Z,105
2016-05-05T05:21:58.942Z,105
2016-05-05T05:22:58.897Z,105
2016-05-05T05:23:58.869Z,105
2016-05-05T05:24:58.856Z,110
2016-05-05T05:25:58.639Z,110
2016-05-05T05:26:58.783Z,110
2016-05-05T05:27:58.754Z,110
2016-05-05T05:28:58.726Z,110
2016-05-05T05:29:58.682Z,115
2016-05-05T05:30:58.528Z,115
2016-05-05T05:31:58.655Z,115
2016-05-05T05:32:58.643Z,115
2016-05-05T05:33:58.599Z,120
2016-05-05T05:34:58.585Z,120
2016-05-05T05:35:58.245Z,120
2016-05-05T05:36:58.357Z,120
2016-05-05T05:37:58.500Z,125
2016-05-05T05:38:58.456Z,125
2016-05-05T05:39:58.287Z,125
2016-05-05T05:40:58.259Z,130
2016-05-05T05:41:58.386Z,130
2016-05-05T05:42:58.373Z,130
2016-05-05T05:43:58.328Z,130
2016-05-05T05:44:58.300Z,130
2016-05-05T05:45:58.287Z,130
2016-05-05T05:46:58.259Z,130
2016-05-05T05:47:58.214Z,130
2016-05-05T05:48:58.201Z,135
2016-05-05T05:49:58.173Z,135
2016-05-05T05:50:58.160Z,135
2016-05-05T05:51:58.131Z,135
2016-05-05T05:52:57.931Z,135
2016-05-05T05:53:58.058Z,135
2016-05-05T05:54:58.046Z,135
2016-05-05T05:55:57.689Z,140
2016-05-05T05:56:58.004Z,140
2016-05-05T05:57:57.804Z,140
2016-05-05T05:58:57.791Z,140
2016-05-05T05:59:57.903Z,140
2016-05-05T06:00:57.890Z,140
2016-05-05T06:01:57.861Z,140
2016-05-05T06:02:57.832Z,145
2016-05-05T06:03:57.804Z,145
2016-05-05T06:04:57.635Z,145
2016-05-05T06:05:57.779Z,145
2016-05-05T06:06:57.735Z,145
2016-05-05T06:07:57.549Z,145
2016-05-05T06:08:58.020Z,145
2016-05-05T06:09:58.507Z,145
2016-05-05T06:10:57.480Z,150
2016-05-05T06:11:57.623Z,150
2016-05-05T06:12:57.578Z,150
2016-05-05T06:13:57.237Z,150
2016-05-05T06:14:57.396Z,150
2016-05-05T06:15:57.195Z,150
2016-05-05T06:16:57.480Z,150
2016-05-05T06:17:57.467Z,155
2016-05-05T06:18:57.125Z,155
2016-05-05T06:19:57.284Z,150
2016-05-05T06:20:57.412Z,150
2016-05-05T06:21:57.212Z,155
2016-05-05T06:22:57.183Z,155
2016-05-05T06:23:57.305Z,155
2016-05-05T06:24:57.308Z,155
2016-05-05T06:25:57.248Z,160
2016-05-05T06:26:57.236Z,160
2016-05-05T06:27:57.207Z,160
2016-05-05T06:28:56.865Z,165
2016-05-05T06:29:56.852Z,165
2016-05-05T06:30:57.137Z,165
2016-05-05T06:31:57.108Z,170
2016-05-05T06:32:57.080Z,170
2016-05-05T06:33:56.910Z,170
2016-05-05T06:34:57.038Z,175
2016-05-05T06:35:56.868Z,180
2016-05-05T06:36:56.981Z,180
2016-05-05T06:37:56.953Z,185
2016-05-05T06:38:56.939Z,185
2016-05-05T06:39:56.614Z,185
2016-05-05T06:40:56.914Z,190
2016-05-05T06:41:56.713Z,190
2016-05-05T06:42:56.701Z,200
2016-05-05T06:43:56.812Z,205
2016-05-05T06:44:56.800Z,210
2016-05-05T06:45:56.786Z,210
2016-05-05T06:46:56.742Z,230
2016-05-05T06:47:56.730Z,235
2016-05-05T06:48:56.700Z,255
2016-05-05T06:49:56.703Z,265
2016-05-05T06:50:56.659Z,280
2016-05-05T06:51:56.630Z,285
2016-05-05T06:52:56.602Z,300
2016-05-05T06:53:56.589Z,310
2016-05-05T06:54:56.452Z,445
2016-05-05T06:55:56.376Z,660
2016-05-05T06:56:56.550Z,880
2016-05-05T06:57:56.350Z,1030
2016-05-05T06:58:56.337Z,1070
2016-05-05T06:59:56.449Z,1085
2016-05-05T07:00:56.435Z,1150
2016-05-05T07:01:56.424Z,1210
2016-05-05T07:02:56.395Z,1275
2016-05-05T07:03:56.366Z,1320
2016-05-05T07:04:56.369Z,1395
2016-05-05T07:05:56.185Z,1360
2016-05-05T07:06:56.156Z,1320
2016-05-05T07:07:56.143Z,1305
2016-05-05T07:08:56.129Z,1310
2016-05-05T07:09:56.523Z,1330
2016-05-05T07:10:56.245Z,1325
2016-05-05T07:11:56.075Z,1315
2016-05-05T07:12:56.218Z,1295
2016-05-05T07:13:56.190Z,1385
2016-05-05T07:14:56.178Z,1435
2016-05-05T07:15:56.180Z,1415
2016-05-05T07:16:55.682Z,1385
2016-05-05T07:17:55.982Z,1365
2016-05-05T07:18:56.125Z,1350
2016-05-05T07:19:55.956Z,1315
2016-05-05T07:20:56.099Z,1320
2016-05-05T07:21:56.086Z,1330
2016-05-05T07:22:56.074Z,1320
2016-05-05T07:23:55.904Z,1320
2016-05-05T07:24:55.922Z,1355
2016-05-05T07:25:56.035Z,1375
2016-05-05T07:26:56.038Z,1395
2016-05-05T07:27:55.868Z,1425
2016-05-05T07:28:55.683Z,1455
2016-05-05T07:29:55.999Z,1490
2016-05-05T07:30:55.986Z,1475
2016-05-05T07:31:55.801Z,1445
2016-05-05T07:32:55.960Z,1410
2016-05-05T07:33:55.791Z,1330
2016-05-05T07:34:55.762Z,1250
2016-05-05T07:35:55.780Z,1230
2016-05-05T07:36:55.908Z,1205
2016-05-05T07:37:55.910Z,1200
2016-05-05T07:38:55.898Z,1240
2016-05-05T07:39:55.900Z,1310
2016-05-05T07:40:55.857Z,1420
2016-05-05T07:41:55.703Z,1495
2016-05-05T07:42:55.861Z,1560
2016-05-05T07:43:55.849Z,1570
2016-05-05T07:44:55.836Z,1620
2016-05-05T07:45:55.667Z,1585
2016-05-05T07:46:55.825Z,1595
2016-05-05T07:47:55.812Z,1585
2016-05-05T07:48:55.815Z,1590
2016-05-05T07:49:55.646Z,1570
2016-05-05T07:50:55.790Z,1630
2016-05-05T07:51:55.652Z,1625
2016-05-05T07:52:55.608Z,1630
2016-05-05T07:53:55.594Z,1640
2016-05-05T07:54:56.081Z,1570
2016-05-05T07:55:55.583Z,1515
2016-05-05T07:56:55.743Z,1480
2016-05-05T07:57:55.574Z,1415
2016-05-05T07:58:55.717Z,1515
2016-05-05T07:59:55.705Z,1590
2016-05-05T08:00:55.551Z,1615
2016-05-05T08:01:55.694Z,1670
2016-05-05T08:02:55.556Z,1660
2016-05-05T08:03:55.543Z,1585
2016-05-05T08:04:55.515Z,1550
2016-05-05T08:05:55.674Z,1595
2016-05-05T08:06:55.677Z,1650
2016-05-05T08:07:55.507Z,1690
2016-05-05T08:08:55.650Z,1695
2016-05-05T08:09:55.544Z,1635
2016-05-05T08:10:55.640Z,1595
2016-05-05T08:11:55.643Z,1560
2016-05-05T08:12:55.317Z,1565
2016-05-05T08:13:55.632Z,1615
2016-05-05T08:14:55.620Z,1630
2016-05-05T08:15:55.467Z,1635
2016-05-05T08:16:55.594Z,1625
2016-05-05T08:17:55.596Z,1570
2016-05-05T08:18:55.584Z,1570
2016-05-05T08:19:55.586Z,1600
2016-05-05T08:20:55.573Z,1605
2016-05-05T08:21:55.561Z,1645
2016-05-05T08:22:55.579Z,1705
2016-05-05T08:23:55.566Z,1735
2016-05-05T08:24:55.631Z,1710
2016-05-05T08:25:55.555Z,1655
2016-05-05T08:26:55.558Z,1750
2016-05-05T08:27:55.545Z,1740
2016-05-05T08:28:55.392Z,1730
2016-05-05T08:29:55.238Z,1720
2016-05-05T08:30:55.366Z,1705
2016-05-05T08:31:55.525Z,1715
2016-05-05T08:32:55.512Z,1725
2016-05-05T08:33:55.530Z,1635
2016-05-05T08:34:55.518Z,1625
2016-05-05T08:35:55.520Z,1590
2016-05-05T08:36:55.335Z,1575
2016-05-05T08:37:55.494Z,1565
2016-05-05T08:38:55.324Z,1560
2016-05-05T08:39:56.312Z,1600
2016-05-05T08:40:55.501Z,1555
2016-05-05T08:41:55.489Z,1635
2016-05-05T08:42:55.289Z,1640
2016-05-05T08:43:55.307Z,1595
2016-05-05T08:44:55.137Z,1105
2016-05-05T08:45:55.298Z,390
2016-05-05T08:46:55.440Z,250
2016-05-05T08:47:55.411Z,240
2016-05-05T08:48:55.414Z,225
2016-05-05T08:49:55.401Z,215
2016-05-05T08:50:55.248Z,215
2016-05-05T08:51:55.391Z,205
2016-05-05T08:52:55.394Z,195
2016-05-05T08:53:55.365Z,190
2016-05-05T08:54:55.555Z,180
2016-05-05T08:55:55.339Z,180
2016-05-05T08:56:55.342Z,180
2016-05-05T08:57:55.173Z,175
2016-05-05T08:58:55.300Z,175
2016-05-05T08:59:55.318Z,175
2016-05-05T09:00:55.291Z,180
2016-05-05T09:01:55.122Z,180
2016-05-05T09:02:55.263Z,175
2016-05-05T09:03:55.096Z,170
2016-05-05T09:04:55.066Z,170
2016-05-05T09:05:55.241Z,165
2016-05-05T09:06:55.228Z,165
2016-05-05T09:07:55.027Z,165
2016-05-05T09:08:55.187Z,165
2016-05-05T09:09:55.596Z,165
2016-05-05T09:10:54.989Z,165
2016-05-05T09:11:55.132Z,165
2016-05-05T09:12:54.823Z,165
2016-05-05T09:13:54.935Z,170
2016-05-05T09:14:55.093Z,170
2016-05-05T09:15:55.096Z,170
2016-05-05T09:16:54.896Z,170
2016-05-05T09:17:55.040Z,165
2016-05-05T09:18:55.025Z,165
2016-05-05T09:19:55.014Z,165
2016-05-05T09:20:54.984Z,165
2016-05-05T09:21:54.972Z,165
2016-05-05T09:22:54.943Z,165
2016-05-05T09:23:54.774Z,165
2016-05-05T09:24:54.464Z,165
2016-05-05T09:25:54.888Z,165
2016-05-05T09:26:54.564Z,165
2016-05-05T09:27:54.863Z,165
2016-05-05T09:28:54.850Z,160
2016-05-05T09:29:54.839Z,160
2016-05-05T09:30:55.737Z,160
2016-05-05T09:31:54.817Z,160
2016-05-05T09:32:57.156Z,160
2016-05-05T09:33:54.481Z,165
2016-05-05T09:34:54.718Z,160
2016-05-05T09:35:54.721Z,160
2016-05-05T09:36:54.692Z,160
2016-05-05T09:37:54.663Z,160
2016-05-05T09:38:54.337Z,160
2016-05-05T09:39:56.466Z,160
2016-05-05T09:40:54.468Z,160
2016-05-05T09:41:54.440Z,160
2016-05-05T09:42:54.577Z,160
2016-05-05T09:43:54.409Z,160
2016-05-05T09:44:54.551Z,160
2016-05-05T09:45:54.194Z,160
2016-05-05T09:46:54.432Z,160
2016-05-05T09:48:00.559Z,160
2016-05-05T09:48:54.297Z,160
2016-05-05T09:49:54.456Z,165
2016-05-05T09:50:54.427Z,155
2016-05-05T09:51:54.258Z,155
2016-05-05T09:52:54.386Z,155
2016-05-05T09:53:54.216Z,160
2016-05-05T09:54:55.734Z,160
2016-05-05T09:55:54.050Z,160
2016-05-05T09:56:54.177Z,160
2016-05-05T09:57:54.289Z,160
2016-05-05T09:58:54.324Z,160
2016-05-05T09:59:54.263Z,160
2016-05-05T10:00:54.250Z,160
2016-05-05T10:01:54.222Z,160
2016-05-05T10:02:54.052Z,160
2016-05-05T10:03:54.212Z,160
2016-05-05T10:04:54.026Z,160
2016-05-05T10:05:53.998Z,160
2016-05-05T10:06:53.970Z,160
2016-05-05T10:07:53.957Z,160
2016-05-05T10:08:53.787Z,160
2016-05-05T10:09:54.071Z,160
2016-05-05T10:10:53.918Z,160
2016-05-05T10:11:54.045Z,160
2016-05-05T10:12:54.018Z,165
2016-05-05T10:13:53.832Z,165
2016-05-05T10:14:53.834Z,160
2016-05-05T10:15:53.963Z,160
2016-05-05T10:16:53.809Z,165
2016-05-05T10:17:53.920Z,165
2016-05-05T10:18:53.799Z,165
2016-05-05T10:19:53.583Z,165
2016-05-05T10:20:53.866Z,165
2016-05-05T10:21:53.870Z,165
2016-05-05T10:22:53.856Z,165
2016-05-05T10:23:53.812Z,170
2016-05-05T10:24:53.486Z,170
2016-05-05T10:25:53.630Z,170
2016-05-05T10:26:53.742Z,170
2016-05-05T10:27:54.355Z,170
2016-05-05T10:28:53.575Z,170
2016-05-05T10:29:53.719Z,170
2016-05-05T10:30:53.690Z,170
2016-05-05T10:31:53.677Z,170
2016-05-05T10:32:53.634Z,170
2016-05-05T10:33:53.464Z,170
2016-05-05T10:34:53.608Z,170
2016-05-05T10:35:53.594Z,170
2016-05-05T10:36:53.582Z,170
2016-05-05T10:37:53.569Z,170
2016-05-05T10:38:53.556Z,170
2016-05-05T10:39:53.965Z,170
2016-05-05T10:40:53.514Z,170
2016-05-05T10:41:53.485Z,170
2016-05-05T10:42:53.457Z,165
2016-05-05T10:43:53.288Z,165
2016-05-05T10:44:53.431Z,165
2016-05-05T10:45:53.262Z,165
2016-05-05T10:46:53.234Z,165
2016-05-05T10:47:53.362Z,165
2016-05-05T10:48:53.192Z,165
2016-05-05T10:49:53.320Z,165
2016-05-05T10:50:53.338Z,165
2016-05-05T10:51:53.309Z,165
2016-05-05T10:52:53.281Z,165
2016-05-05T10:53:53.252Z,165
2016-05-05T10:54:53.802Z,165
2016-05-05T10:55:53.242Z,160
2016-05-05T10:56:56.230Z,160
2016-05-05T10:57:53.185Z,160
2016-05-05T10:58:53.048Z,160
2016-05-05T10:59:53.219Z,160
2016-05-05T11:00:53.093Z,155
2016-05-05T11:01:56.671Z,155
2016-05-05T11:02:53.577Z,155
2016-05-05T11:03:53.306Z,155
2016-05-05T11:04:53.309Z,155
2016-05-05T11:05:52.999Z,155
2016-05-05T11:06:53.315Z,160
2016-05-05T11:07:53.302Z,155
2016-05-05T11:08:53.267Z,155
2016-05-05T11:09:53.275Z,155
2016-05-05T11:10:53.095Z,155
2016-05-05T11:11:53.259Z,155
2016-05-05T11:12:53.236Z,155
2016-05-05T11:13:53.054Z,155
2016-05-05T11:14:53.199Z,155
2016-05-05T11:15:53.172Z,155
2016-05-05T11:16:53.177Z,155
2016-05-05T11:17:53.150Z,150
2016-05-05T11:18:52.967Z,155
2016-05-05T11:19:53.127Z,150
2016-05-05T11:20:53.098Z,150
2016-05-05T11:21:53.087Z,150
2016-05-05T11:22:52.980Z,150
2016-05-05T11:23:53.387Z,150
2016-05-05T11:24:53.671Z,150
2016-05-05T11:25:53.002Z,150
2016-05-05T11:26:52.989Z,150
2016-05-05T11:27:52.992Z,150
2016-05-05T11:28:52.792Z,150
2016-05-05T11:29:52.936Z,150
2016-05-05T11:30:52.922Z,150
2016-05-05T11:31:52.895Z,145
2016-05-05T11:32:52.898Z,145
2016-05-05T11:33:52.853Z,145
2016-05-05T11:34:52.527Z,145
2016-05-05T11:35:52.686Z,145
2016-05-05T11:36:52.517Z,145
2016-05-05T11:37:52.801Z,145
2016-05-05T11:38:52.772Z,145
2016-05-05T11:39:52.792Z,145
2016-05-05T11:40:52.732Z,145
2016-05-05T11:41:52.719Z,150
2016-05-05T11:42:52.705Z,145
2016-05-05T11:43:52.380Z,150
2016-05-05T11:44:52.523Z,145
2016-05-05T11:45:52.652Z,145
2016-05-05T11:46:52.482Z,150
2016-05-05T11:47:52.454Z,145
2016-05-05T11:48:52.596Z,145
2016-05-05T11:49:52.412Z,145
2016-05-05T11:50:52.571Z,145
2016-05-05T11:51:52.526Z,145
2016-05-05T11:52:52.545Z,145
2016-05-05T11:53:52.360Z,145
2016-05-05T11:54:52.348Z,145
2016-05-05T11:55:52.460Z,145
2016-05-05T11:56:52.431Z,145
2016-05-05T11:57:52.434Z,140
2016-05-05T11:58:52.436Z,140
2016-05-05T11:59:52.392Z,140
2016-05-05T12:00:52.363Z,140
2016-05-05T12:01:52.350Z,140
2016-05-05T12:02:52.353Z,140
2016-05-05T12:03:52.325Z,140
2016-05-05T12:04:52.297Z,140
2016-05-05T12:05:52.299Z,140
2016-05-05T12:06:52.270Z,140
2016-05-05T12:07:52.257Z,140
2016-05-05T12:08:52.072Z,140
2016-05-05T12:09:51.794Z,140
2016-05-05T12:10:52.047Z,135
2016-05-05T12:11:52.174Z,135
2016-05-05T12:12:51.989Z,135
2016-05-05T12:13:52.148Z,135
2016-05-05T12:14:52.135Z,135
2016-05-05T12:15:52.090Z,135
2016-05-05T12:16:52.079Z,135
2016-05-05T12:17:52.082Z,135
2016-05-05T12:18:52.052Z,135
2016-05-05T12:19:52.040Z,135
2016-05-05T12:20:52.010Z,135
2016-05-05T12:21:51.842Z,135
2016-05-05T12:22:51.828Z,135
2016-05-05T12:23:51.815Z,135
2016-05-05T12:24:51.647Z,135
2016-05-05T12:25:51.915Z,135
2016-05-05T12:26:52.262Z,135
2016-05-05T12:27:51.873Z,135
2016-05-05T12:28:51.861Z,135
2016-05-05T12:29:51.863Z,135
2016-05-05T12:30:51.851Z,135
2016-05-05T12:31:51.806Z,135
2016-05-05T12:32:51.824Z,135
2016-05-05T12:33:51.780Z,135
2016-05-05T12:34:51.798Z,135
2016-05-05T12:35:51.738Z,135
2016-05-05T12:36:51.725Z,135
2016-05-05T12:37:51.697Z,135
2016-05-05T12:38:51.544Z,135
2016-05-05T12:39:51.561Z,135
2016-05-05T12:40:51.658Z,135
2016-05-05T12:41:51.646Z,140
2016-05-05T12:42:51.460Z,130
2016-05-05T12:43:51.447Z,130
2016-05-05T12:44:51.591Z,130
2016-05-05T12:45:51.563Z,130
2016-05-05T12:46:51.393Z,135
2016-05-05T12:47:51.224Z,135
2016-05-05T12:48:51.508Z,135
2016-05-05T12:49:51.495Z,135
2016-05-05T12:50:51.466Z,135
2016-05-05T12:51:51.468Z,130
2016-05-05T12:52:51.143Z,130
2016-05-05T12:53:51.287Z,130
2016-05-05T12:54:52.306Z,130
2016-05-05T12:55:51.074Z,130
2016-05-05T12:56:51.357Z,130
2016-05-05T12:57:51.047Z,130
2016-05-05T12:58:51.347Z,130
2016-05-05T12:59:51.148Z,125
2016-05-05T13:00:51.290Z,125
2016-05-05T13:01:51.262Z,125
2016-05-05T13:02:51.108Z,125
2016-05-05T13:03:51.236Z,130
2016-05-05T13:04:51.223Z,125
2016-05-05T13:05:51.225Z,125
2016-05-05T13:06:51.197Z,125
2016-05-05T13:07:51.012Z,125
2016-05-05T13:08:51.140Z,125
2016-05-05T13:09:50.986Z,125
2016-05-05T13:10:51.130Z,125
2016-05-05T13:11:50.945Z,125
2016-05-05T13:12:50.932Z,125
2016-05-05T13:13:51.075Z,125
2016-05-05T13:14:50.890Z,125
2016-05-05T13:15:51.018Z,125
2016-05-05T13:16:51.005Z,125
2016-05-05T13:17:50.993Z,125
2016-05-05T13:18:50.979Z,125
2016-05-05T13:19:50.951Z,125
2016-05-05T13:20:50.954Z,125
2016-05-05T13:21:50.910Z,125
2016-05-05T13:22:50.896Z,125
2016-05-05T13:23:50.743Z,125
2016-05-05T13:24:50.887Z,125
2016-05-05T13:25:50.685Z,125
2016-05-05T13:26:50.829Z,125
2016-05-05T13:27:50.348Z,125
2016-05-05T13:28:50.803Z,125
2016-05-05T13:29:50.634Z,125
2016-05-05T13:30:50.762Z,120
2016-05-05T13:31:50.733Z,125
2016-05-05T13:32:50.704Z,125
2016-05-05T13:33:50.551Z,120
2016-05-05T13:34:50.523Z,125
2016-05-05T13:35:50.681Z,120
2016-05-05T13:36:50.652Z,120
2016-05-05T13:38:10.281Z,120
2016-05-05T13:38:50.470Z,120
2016-05-05T13:39:53.333Z,120
2016-05-05T13:40:50.289Z,125
2016-05-05T13:41:50.275Z,125
2016-05-05T13:42:50.403Z,125
2016-05-05T13:43:50.531Z,125
2016-05-05T13:44:50.361Z,125
2016-05-05T13:45:50.349Z,125
2016-05-05T13:46:50.321Z,125
2016-05-05T13:47:50.308Z,125
2016-05-05T13:48:50.451Z,125
2016-05-05T13:49:50.421Z,125
2016-05-05T13:50:50.425Z,125
2016-05-05T13:51:50.396Z,125
2016-05-05T13:52:50.352Z,125
2016-05-05T13:53:50.230Z,125
2016-05-05T13:54:50.076Z,125
2016-05-05T13:55:50.016Z,125
2016-05-05T13:56:50.144Z,125
2016-05-05T13:57:50.287Z,125
2016-05-05T13:58:50.259Z,125
2016-05-05T13:59:50.277Z,125
2016-05-05T14:00:50.233Z,125